ADDS METAR Data INFO
IDs: Format: Raw Decoded Include TAF

Data at: 1046 UTC 19 Oct 2017

KWDG 191035Z AUTO 00000KT 10SM CLR 10/08 A3006 RMK AO2
KWDG 191015Z AUTO 00000KT 10SM CLR 09/08 A3006 RMK AO2
KWDG 190955Z AUTO 00000KT 10SM CLR 09/08 A3005 RMK AO2
KWDG 190935Z AUTO 00000KT 10SM CLR 10/08 A3005 RMK AO2
KWDG 190915Z AUTO 00000KT 10SM CLR 10/08 A3006 RMK AO2
KWDG 190855Z AUTO 00000KT 10SM CLR 10/09 A3006 RMK AO2
KWDG 190835Z AUTO 00000KT 10SM CLR 10/09 A3006 RMK AO2
KWDG 190815Z AUTO 00000KT 10SM CLR 10/10 A3006 RMK AO2
KWDG 190755Z AUTO 00000KT 10SM CLR 10/10 A3006 RMK AO2
KWDG 190735Z AUTO 00000KT 10SM CLR 10/09 A3006 RMK AO2
KWDG 190715Z AUTO 00000KT 10SM CLR 10/10 A3006 RMK AO2
KWDG 190655Z AUTO 00000KT 10SM CLR 11/10 A3006 RMK AO2
KWDG 190635Z AUTO 00000KT 10SM CLR 11/10 A3005 RMK AO2
KWDG 190615Z AUTO 00000KT 10SM CLR 11/10 A3004 RMK AO2
KWDG 190555Z AUTO 00000KT 10SM CLR 11/10 A3005 RMK AO2
KWDG 190535Z AUTO 00000KT 10SM CLR 12/10 A3005 RMK AO2
KWDG 190515Z AUTO 00000KT 10SM CLR 12/10 A3005 RMK AO2
KWDG 190455Z AUTO 00000KT 10SM CLR 12/10 A3006 RMK AO2
KWDG 190435Z AUTO 00000KT 10SM CLR 12/10 A3006 RMK AO2
KWDG 190415Z AUTO 00000KT 10SM CLR 13/10 A3005 RMK AO2
KWDG 190355Z AUTO 00000KT 10SM CLR 13/11 A3005 RMK AO2
KWDG 190335Z AUTO 18004KT 10SM CLR 13/11 A3005 RMK AO2
KWDG 190315Z AUTO 17005KT 10SM CLR 13/11 A3004 RMK AO2
KWDG 190147Z 18005KT 10SM BKN200 15/11 A3004 RMK LAST
KWDG 190047Z 00000KT 10SM BKN200 17/10 A3002
KWDG 182347Z 17007KT 10SM BKN200 23/09 A3000
KWDG 182259Z 17010KT 10SM BKN200 25/08 A2998
KWDG 182147Z 18014G21KT 10SM BKN200 28/07 A2999
KWDG 181950Z 18014G21KT 10SM SCT200 27/09 A2998
KWDG 181850Z 18017G24KT 10SM SCT200 26/09 A2999
KWDG 181748Z 18022KT 10SM FEW250 23/09 A3002
KWDG 181648Z 19023KT 10SM FEW180 21/09 A3004
KWDG 181548Z 17020KT 10SM FEW180 18/09 A3006
KWDG 181446Z 17015G20KT 10SM SKC 16/09 A3005
KWDG 181355Z 17008KT 10SM SKC 13/09 A3004
KWDG 181245Z 17007KT 10SM FEW150 10/07 A3002
KWDG 181155Z AUTO 17008KT 10SM CLR 10/07 A3002 RMK AO2
KWDG 181145Z 17009KT 10SM FEW150 10/08 A3002
KWDG 181135Z AUTO 18009KT 10SM CLR 09/07 A3002 RMK AO2
KWDG 181115Z AUTO 00000KT 10SM CLR 09/07 A3003 RMK AO2
KWDG 181110Z 00000KT 10SM FEW150 09/08 A3002 RMK FIRST
KWDG 181055Z AUTO 00000KT 10SM CLR 09/07 A3002 RMK AO2
KWDG 181035Z AUTO 00000KT 10SM CLR 08/07 A3002 RMK AO2
KWDG 181015Z AUTO 00000KT 10SM CLR 08/07 A3002 RMK AO2
KWDG 180955Z AUTO 00000KT 10SM CLR 09/07 A3002 RMK AO2
KWDG 180935Z AUTO 00000KT 10SM CLR 09/07 A3002 RMK AO2
KWDG 180910Z AUTO 00000KT 10SM CLR 08/07 A3002 RMK AO2
KWDG 180855Z AUTO 00000KT 10SM CLR 08/07 A3002 RMK AO2
KWDG 180835Z AUTO 00000KT 10SM CLR 08/07 A3003 RMK AO2
KWDG 180815Z AUTO 00000KT 10SM CLR 08/07 A3004 RMK AO2
KWDG 180755Z AUTO 00000KT 10SM CLR 08/07 A3004 RMK AO2
KWDG 180735Z AUTO 00000KT 10SM CLR 08/07 A3005 RMK AO2
KWDG 180715Z AUTO 00000KT 10SM CLR 09/07 A3005 RMK AO2
KWDG 180655Z AUTO 00000KT 10SM CLR 10/08 A3006 RMK AO2
KWDG 180635Z AUTO 00000KT 10SM CLR 10/08 A3006 RMK AO2
KWDG 180615Z AUTO 00000KT 10SM CLR 10/08 A3006 RMK AO2
KWDG 180550Z AUTO 00000KT 10SM CLR 10/08 A3007 RMK AO2
KWDG 180535Z AUTO 00000KT 10SM CLR 10/08 A3007 RMK AO2
KWDG 180515Z AUTO 00000KT 10SM CLR 10/08 A3008 RMK AO2
KWDG 180455Z AUTO 00000KT 10SM CLR 10/08 A3009 RMK AO2
KWDG 180435Z AUTO 00000KT 10SM CLR 11/08 A3009 RMK AO2
KWDG 180415Z AUTO 00000KT 10SM CLR 11/08 A3009 RMK AO2
KWDG 180355Z AUTO 00000KT 10SM CLR 11/08 A3009 RMK AO2
KWDG 180335Z AUTO 00000KT 10SM CLR 11/08 A3009 RMK AO2
KWDG 180315Z AUTO 00000KT 10SM CLR 11/09 A3009 RMK AO2
KWDG 180147Z 00000KT 10SM FEW150 13/08 A3008 RMK LAST
KWDG 180047Z 00000KT 10SM FEW150 15/08 A3007
KWDG 172347Z 16008KT 10SM FEW150 19/08 A3007
KWDG 172255Z 17014KT 10SM SKC 22/07 A3007